Time;durP1;ratioP1;P1;durP2;ratioP2;P2;SDS_P1;SDS_P2;PMS_P1;PMS_P2;Temp;Humidity;BMP_temperature;BMP_pressure;BME280_temperature;BME280_humidity;BME280_pressure;Samples;Min_cycle;Max_cycle;Signal;HPM_P1;HPM_P2
2023/01/07 00:01:05;;;;;;;39.65;6.50;;;;;;;;;;5033834;28;20096;-34
2023/01/07 00:03:32;;;;;;;36.58;7.30;;;;;;;;;;5015457;28;20029;-34
2023/01/07 00:06:04;;;;;;;33.28;6.72;;;;;;;;;;5015571;28;20436;-36
2023/01/07 00:08:31;;;;;;;40.67;7.05;;;;;;;;;;5033797;28;20116;-34
2023/01/07 00:11:09;;;;;;;37.75;6.20;;;;;;;;;;5033855;28;20034;-36
2023/01/07 00:13:36;;;;;;;33.35;6.45;;;;;;;;;;5033497;28;20124;-33
2023/01/07 00:16:07;;;;;;;31.58;6.35;;;;;;;;;;5033576;28;20040;-36
2023/01/07 00:18:35;;;;;;;37.03;5.77;;;;;;;;;;5015752;28;20502;-36
2023/01/07 00:21:03;;;;;;;47.65;6.80;;;;;;;;;;5033416;28;20404;-36
2023/01/07 00:23:30;;;;;;;40.50;5.85;;;;;;;;;;5033351;28;20025;-35
2023/01/07 00:26:05;;;;;;;44.83;6.45;;;;;;;;;;5033304;28;20022;-34
2023/01/07 00:28:37;;;;;;;34.78;5.80;;;;;;;;;;5033358;28;20030;-36
2023/01/07 00:31:05;;;;;;;37.13;6.00;;;;;;;;;;5033331;28;20037;-34
2023/01/07 00:33:34;;;;;;;32.85;6.22;;;;;;;;;;5033052;28;20030;-34
2023/01/07 00:36:02;;;;;;;37.00;6.32;;;;;;;;;;5033020;28;20030;-34
2023/01/07 00:38:29;;;;;;;35.70;6.18;;;;;;;;;;5030149;28;20511;-35
2023/01/07 00:40:56;;;;;;;39.42;6.18;;;;;;;;;;5019341;28;20111;-34
2023/01/07 00:43:23;;;;;;;48.00;7.65;;;;;;;;;;5015151;28;20018;-40
2023/01/07 00:45:50;;;;;;;47.90;6.78;;;;;;;;;;5025240;28;20037;-41
2023/01/07 00:48:18;;;;;;;51.80;6.40;;;;;;;;;;5017199;28;20045;-40
2023/01/07 00:50:47;;;;;;;44.65;6.57;;;;;;;;;;5015480;28;20037;-34
2023/01/07 00:53:14;;;;;;;47.13;7.40;;;;;;;;;;5015670;28;20112;-37
2023/01/07 00:55:41;;;;;;;40.63;6.47;;;;;;;;;;5018187;28;20360;-40
2023/01/07 00:58:08;;;;;;;52.80;7.05;;;;;;;;;;5031825;28;20034;-41
2023/01/07 01:00:34;;;;;;;51.65;7.78;;;;;;;;;;5029214;28;20032;-41
2023/01/07 01:03:01;;;;;;;50.08;7.28;;;;;;;;;;5020841;28;20077;-39
2023/01/07 01:05:28;;;;;;;45.38;7.43;;;;;;;;;;5019570;28;20084;-35
2023/01/07 01:07:55;;;;;;;38.08;7.07;;;;;;;;;;5001931;28;20729;-34
2023/01/07 01:10:22;;;;;;;45.88;7.10;;;;;;;;;;5022342;28;20027;-41
2023/01/07 01:12:49;;;;;;;46.75;6.93;;;;;;;;;;5021823;28;20469;-41
2023/01/07 01:15:16;;;;;;;56.35;8.20;;;;;;;;;;5021101;28;20388;-41
2023/01/07 01:17:44;;;;;;;47.75;6.72;;;;;;;;;;5022002;28;20026;-41
2023/01/07 01:20:15;;;;;;;39.25;6.50;;;;;;;;;;5018602;28;20045;-41
2023/01/07 01:22:42;;;;;;;37.47;6.10;;;;;;;;;;5022581;28;20082;-38
2023/01/07 01:25:09;;;;;;;38.55;6.18;;;;;;;;;;5016919;28;20038;-34
2023/01/07 01:27:36;;;;;;;45.63;6.85;;;;;;;;;;5016667;28;20440;-37
2023/01/07 01:30:04;;;;;;;46.80;7.50;;;;;;;;;;5020088;28;20038;-41
2023/01/07 01:32:31;;;;;;;45.13;6.88;;;;;;;;;;5019544;28;20075;-37
2023/01/07 01:34:58;;;;;;;39.13;7.10;;;;;;;;;;5014142;28;20088;-36
2023/01/07 01:37:25;;;;;;;44.03;6.95;;;;;;;;;;5028098;28;20026;-36
2023/01/07 01:39:54;;;;;;;33.10;6.57;;;;;;;;;;5022649;28;20100;-41
2023/01/07 01:42:22;;;;;;;39.03;6.78;;;;;;;;;;5020709;28;20496;-41
2023/01/07 01:44:53;;;;;;;41.45;6.63;;;;;;;;;;5027783;28;20056;-40
2023/01/07 01:47:20;;;;;;;34.67;7.20;;;;;;;;;;5030032;28;20033;-40
2023/01/07 01:49:50;;;;;;;37.13;6.95;;;;;;;;;;5012017;28;20727;-39
2023/01/07 01:52:18;;;;;;;36.22;6.90;;;;;;;;;;5011957;28;20400;-39
2023/01/07 01:54:55;;;;;;;43.80;8.10;;;;;;;;;;5012004;28;20109;-41
2023/01/07 01:57:22;;;;;;;33.15;6.75;;;;;;;;;;5012029;28;20111;-36
2023/01/07 01:59:51;;;;;;;40.13;7.70;;;;;;;;;;5012123;28;20144;-40
2023/01/07 02:02:23;;;;;;;34.90;7.53;;;;;;;;;;5012086;28;20025;-40
2023/01/07 02:04:50;;;;;;;47.47;8.63;;;;;;;;;;5011649;28;20105;-40
2023/01/07 02:07:17;;;;;;;36.65;7.55;;;;;;;;;;5021314;28;20056;-34
2023/01/07 02:09:44;;;;;;;46.97;8.93;;;;;;;;;;5031671;28;20041;-34
2023/01/07 02:12:16;;;;;;;50.58;7.95;;;;;;;;;;5031725;28;20073;-36
2023/01/07 02:14:43;;;;;;;;;;;;;;;;;;5032174;28;20369;-34
2023/01/07 02:17:36;;;;;;;36.08;7.13;;;;;;;;;;5027040;28;19916;-35
2023/01/07 02:20:09;;;;;;;38.88;6.90;;;;;;;;;;5011839;28;20101;-39
2023/01/07 02:22:51;;;;;;;37.30;6.90;;;;;;;;;;5011464;28;20100;-41
2023/01/07 02:25:18;;;;;;;;;;;;;;;;;;5027580;28;20495;-35
2023/01/07 02:27:50;;;;;;;39.97;7.22;;;;;;;;;;5032485;28;20395;-34
2023/01/07 02:30:36;;;;;;;45.25;7.13;;;;;;;;;;5032272;28;20044;-34
2023/01/07 02:33:09;;;;;;;45.25;8.13;;;;;;;;;;5020314;28;20112;-40
2023/01/07 02:35:41;;;;;;;34.25;7.95;;;;;;;;;;5018018;28;20380;-34
2023/01/07 02:38:20;;;;;;;28.92;6.22;;;;;;;;;;5023542;28;20131;-35
2023/01/07 02:40:47;;;;;;;71.35;7.68;;;;;;;;;;5021720;28;20037;-43
2023/01/07 02:43:17;;;;;;;39.75;6.15;;;;;;;;;;5026778;28;20026;-39
2023/01/07 02:45:47;;;;;;;38.33;6.15;;;;;;;;;;5026535;28;20416;-44
2023/01/07 02:48:15;;;;;;;31.23;5.50;;;;;;;;;;5023456;28;20036;-41
2023/01/07 02:50:42;;;;;;;38.65;6.18;;;;;;;;;;5022178;28;20040;-44
2023/01/07 02:53:11;;;;;;;39.67;5.90;;;;;;;;;;5023167;28;20037;-41
2023/01/07 02:55:43;;;;;;;31.23;4.63;;;;;;;;;;5026535;28;20108;-41
2023/01/07 02:58:29;;;;;;;29.17;4.72;;;;;;;;;;5032684;28;20048;-39
2023/01/07 03:01:24;;;;;;;26.65;4.80;;;;;;;;;;5030295;28;20170;-41
2023/01/07 03:04:00;;;;;;;38.22;4.90;;;;;;;;;;5031371;28;20680;-42
2023/01/07 03:06:36;;;;;;;27.17;3.88;;;;;;;;;;5032931;28;20112;-46
2023/01/07 03:09:03;;;;;;;32.50;4.35;;;;;;;;;;5032916;28;20479;-40
2023/01/07 03:11:35;;;;;;;29.17;4.32;;;;;;;;;;5033108;28;20029;-44
2023/01/07 03:14:05;;;;;;;28.55;3.35;;;;;;;;;;5030559;28;20022;-41
2023/01/07 03:16:38;;;;;;;24.80;3.13;;;;;;;;;;5029532;28;20021;-40
2023/01/07 03:19:11;;;;;;;31.45;3.20;;;;;;;;;;5030824;28;20041;-39
2023/01/07 03:21:39;;;;;;;27.98;4.05;;;;;;;;;;5030745;28;20053;-44
2023/01/07 03:24:07;;;;;;;25.98;3.42;;;;;;;;;;5030730;28;20072;-44
2023/01/07 03:26:35;;;;;;;21.80;3.33;;;;;;;;;;5031194;28;20056;-41
2023/01/07 03:29:03;;;;;;;31.60;3.35;;;;;;;;;;5031065;28;20109;-40
2023/01/07 03:31:30;;;;;;;19.50;3.25;;;;;;;;;;5031307;28;20026;-44
2023/01/07 03:34:05;;;;;;;29.40;3.42;;;;;;;;;;5032252;28;20756;-40
2023/01/07 03:36:42;;;;;;;26.67;3.15;;;;;;;;;;5032421;28;20029;-44
2023/01/07 03:39:10;;;;;;;22.42;2.67;;;;;;;;;;5031460;28;20068;-44
2023/01/07 03:44:25;;;;;;;29.13;3.38;;;;;;;;;;5029753;28;20040;-41
2023/01/07 03:46:53;;;;;;;27.63;2.97;;;;;;;;;;5030654;28;20041;-44
2023/01/07 03:49:20;;;;;;;20.20;3.13;;;;;;;;;;5030701;28;20029;-40
2023/01/07 03:51:48;;;;;;;19.60;3.10;;;;;;;;;;5030875;28;20026;-44
2023/01/07 03:54:15;;;;;;;32.55;4.18;;;;;;;;;;5030784;28;20037;-45
2023/01/07 03:56:42;;;;;;;34.55;3.63;;;;;;;;;;5030240;28;20026;-39
2023/01/07 03:59:09;;;;;;;25.20;3.10;;;;;;;;;;5030392;28;20124;-44
2023/01/07 04:01:36;;;;;;;31.48;3.65;;;;;;;;;;5012623;28;20037;-40
2023/01/07 04:04:03;;;;;;;27.15;4.13;;;;;;;;;;5031843;28;20022;-44
2023/01/07 04:06:30;;;;;;;27.23;3.70;;;;;;;;;;5031877;28;20045;-44
2023/01/07 04:08:57;;;;;;;15.77;2.53;;;;;;;;;;5031752;28;20100;-42
2023/01/07 04:11:24;;;;;;;30.38;3.50;;;;;;;;;;5028070;28;20365;-42
2023/01/07 04:13:51;;;;;;;27.75;2.67;;;;;;;;;;5031479;28;20112;-44
2023/01/07 04:16:17;;;;;;;19.70;3.00;;;;;;;;;;5031492;28;20037;-43
2023/01/07 04:18:44;;;;;;;15.05;2.72;;;;;;;;;;5031868;28;20061;-44
2023/01/07 04:21:11;;;;;;;15.90;2.88;;;;;;;;;;5031213;28;20053;-41
2023/01/07 04:23:38;;;;;;;17.27;2.70;;;;;;;;;;5013847;28;20039;-43
2023/01/07 04:26:05;;;;;;;22.40;2.75;;;;;;;;;;5031624;28;20033;-44
2023/01/07 04:28:32;;;;;;;14.63;2.65;;;;;;;;;;5031627;28;20025;-41
2023/01/07 04:30:59;;;;;;;15.98;2.78;;;;;;;;;;5031461;28;20017;-43
2023/01/07 04:33:26;;;;;;;23.98;2.65;;;;;;;;;;5031267;28;20044;-40
2023/01/07 04:35:53;;;;;;;23.50;3.10;;;;;;;;;;5031243;28;20430;-41
2023/01/07 04:38:20;;;;;;;31.42;3.88;;;;;;;;;;5028201;28;20101;-40
2023/01/07 04:40:47;;;;;;;23.98;3.17;;;;;;;;;;5022144;28;20116;-44
2023/01/07 04:43:14;;;;;;;27.40;3.30;;;;;;;;;;5022320;28;20451;-41
2023/01/07 04:45:41;;;;;;;34.22;3.35;;;;;;;;;;5020572;28;20029;-44
2023/01/07 04:48:09;;;;;;;19.30;3.20;;;;;;;;;;5021768;28;20466;-44
2023/01/07 04:50:36;;;;;;;19.05;2.80;;;;;;;;;;5022136;28;20495;-43
2023/01/07 04:53:02;;;;;;;25.20;3.42;;;;;;;;;;5020380;28;20026;-44
2023/01/07 04:55:29;;;;;;;16.48;2.50;;;;;;;;;;5021747;28;20033;-41
2023/01/07 04:57:56;;;;;;;36.83;4.22;;;;;;;;;;5004482;28;20123;-44
2023/01/07 05:00:23;;;;;;;46.85;4.82;;;;;;;;;;5022460;28;20053;-44
2023/01/07 05:02:50;;;;;;;27.05;3.42;;;;;;;;;;5021289;28;20096;-40
2023/01/07 05:05:17;;;;;;;23.83;3.00;;;;;;;;;;5020389;28;20048;-44
2023/01/07 05:07:45;;;;;;;33.25;3.92;;;;;;;;;;5022229;28;20383;-44
2023/01/07 05:10:12;;;;;;;30.00;3.80;;;;;;;;;;5021308;28;20347;-41
2023/01/07 05:12:39;;;;;;;29.80;4.03;;;;;;;;;;5020237;28;20048;-44
2023/01/07 05:15:06;;;;;;;26.85;4.07;;;;;;;;;;5022098;28;20122;-44
2023/01/07 05:17:34;;;;;;;23.48;3.65;;;;;;;;;;5021326;28;20431;-42
2023/01/07 05:20:00;;;;;;;22.23;3.38;;;;;;;;;;5019970;28;20034;-41
2023/01/07 05:22:27;;;;;;;23.65;3.05;;;;;;;;;;5021502;28;20053;-44
2023/01/07 05:24:54;;;;;;;33.88;4.45;;;;;;;;;;5021542;28;20109;-41
2023/01/07 05:27:21;;;;;;;22.90;3.25;;;;;;;;;;5020143;28;20546;-44
2023/01/07 05:29:48;;;;;;;30.48;3.38;;;;;;;;;;5021356;28;20033;-40
2023/01/07 05:32:15;;;;;;;19.77;2.97;;;;;;;;;;5021209;28;20046;-41
2023/01/07 05:34:42;;;;;;;15.40;3.13;;;;;;;;;;5019872;28;20034;-44
2023/01/07 05:37:09;;;;;;;20.23;2.58;;;;;;;;;;5021147;28;20040;-44
2023/01/07 05:39:36;;;;;;;21.70;2.88;;;;;;;;;;5021478;28;20033;-44
2023/01/07 05:42:03;;;;;;;11.48;2.35;;;;;;;;;;5019736;28;20468;-44
2023/01/07 05:44:30;;;;;;;17.75;2.90;;;;;;;;;;5020928;28;20033;-39
2023/01/07 05:46:57;;;;;;;20.05;3.10;;;;;;;;;;5021308;28;20078;-41
2023/01/07 05:49:23;;;;;;;14.20;2.10;;;;;;;;;;5019978;28;20029;-44
2023/01/07 05:51:50;;;;;;;15.60;2.28;;;;;;;;;;5020866;28;20032;-44
2023/01/07 05:54:17;;;;;;;15.18;2.55;;;;;;;;;;5021476;28;20029;-41
2023/01/07 05:56:44;;;;;;;16.90;3.00;;;;;;;;;;5017277;28;20480;-41
2023/01/07 05:59:11;;;;;;;26.05;3.45;;;;;;;;;;5020743;28;20029;-40
2023/01/07 06:01:38;;;;;;;20.15;3.28;;;;;;;;;;5016594;28;20029;-39
2023/01/07 06:04:06;;;;;;;17.48;3.05;;;;;;;;;;5021450;28;20087;-40
2023/01/07 06:06:33;;;;;;;18.88;2.85;;;;;;;;;;5020708;28;20042;-41
2023/01/07 06:09:00;;;;;;;18.08;2.63;;;;;;;;;;5019549;28;20029;-43
2023/01/07 06:11:27;;;;;;;18.25;2.95;;;;;;;;;;5021062;28;20029;-45
2023/01/07 06:13:54;;;;;;;19.23;2.88;;;;;;;;;;5020636;28;20088;-43
2023/01/07 06:16:21;;;;;;;20.23;2.90;;;;;;;;;;5019529;28;20030;-40
2023/01/07 06:18:47;;;;;;;14.75;2.85;;;;;;;;;;5021067;28;20033;-39
2023/01/07 06:21:15;;;;;;;13.25;2.63;;;;;;;;;;5020536;28;20081;-44
2023/01/07 06:23:42;;;;;;;20.38;3.20;;;;;;;;;;5019458;28;20540;-43
2023/01/07 06:26:09;;;;;;;16.77;2.60;;;;;;;;;;5020742;28;20109;-40
2023/01/07 06:28:36;;;;;;;15.02;2.58;;;;;;;;;;5021047;28;20077;-40
2023/01/07 06:31:03;;;;;;;14.90;2.53;;;;;;;;;;5001634;28;20483;-43
2023/01/07 06:33:30;;;;;;;15.82;2.97;;;;;;;;;;5020493;28;20073;-40
2023/01/07 06:35:57;;;;;;;16.55;2.35;;;;;;;;;;5020915;28;20404;-44
2023/01/07 06:38:24;;;;;;;12.32;2.63;;;;;;;;;;5019077;28;20488;-44
2023/01/07 06:40:51;;;;;;;22.05;2.78;;;;;;;;;;5020364;28;20072;-44
2023/01/07 06:43:18;;;;;;;21.17;3.22;;;;;;;;;;5020749;28;20022;-41
2023/01/07 06:45:44;;;;;;;11.65;2.35;;;;;;;;;;5016632;28;20025;-41
2023/01/07 06:48:11;;;;;;;24.40;3.40;;;;;;;;;;5020434;28;20079;-44
2023/01/07 06:50:38;;;;;;;17.77;2.75;;;;;;;;;;5020965;28;20030;-44
2023/01/07 06:53:05;;;;;;;13.15;2.42;;;;;;;;;;5016981;28;20033;-43
2023/01/07 06:55:32;;;;;;;12.77;2.63;;;;;;;;;;5020121;28;20551;-44
2023/01/07 06:57:59;;;;;;;17.08;2.40;;;;;;;;;;5019060;28;20428;-44
2023/01/07 07:00:26;;;;;;;11.20;2.25;;;;;;;;;;5016769;28;20030;-44
2023/01/07 07:02:53;;;;;;;20.63;2.95;;;;;;;;;;5019895;28;20096;-40
2023/01/07 07:05:20;;;;;;;15.85;2.47;;;;;;;;;;5021079;28;20038;-42
2023/01/07 07:07:47;;;;;;;12.38;2.60;;;;;;;;;;5019289;28;20041;-44
2023/01/07 07:10:14;;;;;;;25.02;3.40;;;;;;;;;;5019939;28;20085;-44
2023/01/07 07:12:41;;;;;;;20.42;3.20;;;;;;;;;;5020907;28;20029;-44
2023/01/07 07:15:08;;;;;;;16.30;3.47;;;;;;;;;;5021227;28;20120;-44
2023/01/07 07:17:35;;;;;;;25.95;3.55;;;;;;;;;;5023025;28;20033;-40
2023/01/07 07:20:02;;;;;;;15.70;2.70;;;;;;;;;;5024486;28;20021;-40
2023/01/07 07:22:29;;;;;;;12.30;2.47;;;;;;;;;;5022686;28;20065;-41
2023/01/07 07:24:56;;;;;;;12.25;2.63;;;;;;;;;;5022566;28;20044;-44
2023/01/07 07:27:23;;;;;;;19.80;2.63;;;;;;;;;;5023933;28;20048;-44
2023/01/07 07:29:50;;;;;;;10.75;2.60;;;;;;;;;;5022884;28;20496;-41
2023/01/07 07:32:17;;;;;;;10.52;2.30;;;;;;;;;;5022393;28;20037;-39
2023/01/07 07:34:44;;;;;;;16.38;3.20;;;;;;;;;;5023965;28;20113;-44
2023/01/07 07:37:11;;;;;;;10.07;2.55;;;;;;;;;;5022741;28;20493;-40
2023/01/07 07:39:38;;;;;;;15.38;2.55;;;;;;;;;;5022328;28;20111;-41
2023/01/07 07:42:05;;;;;;;12.88;2.95;;;;;;;;;;5024082;28;20076;-43
2023/01/07 07:44:32;;;;;;;16.83;2.83;;;;;;;;;;5022863;28;20045;-41
2023/01/07 07:46:59;;;;;;;11.68;2.40;;;;;;;;;;5021926;28;20041;-44
2023/01/07 07:49:26;;;;;;;16.20;3.35;;;;;;;;;;5023887;28;20026;-44
2023/01/07 07:51:53;;;;;;;13.75;3.10;;;;;;;;;;5022993;28;20132;-44
2023/01/07 07:54:20;;;;;;;9.20;2.65;;;;;;;;;;5021822;28;20045;-39
2023/01/07 07:56:47;;;;;;;10.77;2.10;;;;;;;;;;5001846;28;20408;-43
2023/01/07 07:59:14;;;;;;;11.55;2.08;;;;;;;;;;5022452;28;20369;-39
2023/01/07 08:01:41;;;;;;;13.85;2.58;;;;;;;;;;5023525;28;20030;-43
2023/01/07 08:04:08;;;;;;;9.13;2.13;;;;;;;;;;5022162;28;20025;-43
2023/01/07 08:06:35;;;;;;;30.17;3.40;;;;;;;;;;5022275;28;20036;-44
2023/01/07 08:09:02;;;;;;;14.52;2.67;;;;;;;;;;5023541;28;20022;-44
2023/01/07 08:11:28;;;;;;;15.20;2.50;;;;;;;;;;5021663;28;20604;-44
2023/01/07 08:13:55;;;;;;;11.65;2.40;;;;;;;;;;5021919;28;20113;-39
2023/01/07 08:16:22;;;;;;;11.60;2.50;;;;;;;;;;5023288;28;20044;-41
2023/01/07 08:18:49;;;;;;;16.48;2.65;;;;;;;;;;5021869;28;20037;-43
2023/01/07 08:21:16;;;;;;;10.50;2.80;;;;;;;;;;5021493;28;20513;-44
2023/01/07 08:23:43;;;;;;;16.75;2.95;;;;;;;;;;5023186;28;20087;-42
2023/01/07 08:26:10;;;;;;;23.17;3.40;;;;;;;;;;5021219;28;20029;-44
2023/01/07 08:28:37;;;;;;;26.48;3.70;;;;;;;;;;5021509;28;20427;-44
2023/01/07 08:31:05;;;;;;;22.45;3.25;;;;;;;;;;5022922;28;20375;-44
2023/01/07 08:33:36;;;;;;;17.38;2.60;;;;;;;;;;5004073;28;20029;-44
2023/01/07 08:36:07;;;;;;;18.65;3.10;;;;;;;;;;5020713;28;20034;-44
2023/01/07 08:38:34;;;;;;;19.02;2.70;;;;;;;;;;5021948;28;20411;-44
2023/01/07 08:41:02;;;;;;;18.83;2.90;;;;;;;;;;5022959;28;20030;-44
2023/01/07 08:43:29;;;;;;;24.90;3.17;;;;;;;;;;5021167;28;20029;-39
2023/01/07 08:45:56;;;;;;;16.42;3.05;;;;;;;;;;5021419;28;20033;-44
2023/01/07 08:48:23;;;;;;;20.10;2.83;;;;;;;;;;5022689;28;20041;-41
2023/01/07 08:50:54;;;;;;;16.13;3.28;;;;;;;;;;5021370;28;20021;-44
2023/01/07 08:53:21;;;;;;;24.15;3.67;;;;;;;;;;5020569;28;20037;-41
2023/01/07 08:55:48;;;;;;;22.05;2.65;;;;;;;;;;5004461;28;20033;-43
2023/01/07 08:58:15;;;;;;;24.65;3.42;;;;;;;;;;5021887;28;20041;-43
2023/01/07 09:00:42;;;;;;;14.98;3.10;;;;;;;;;;5020354;28;20022;-44
2023/01/07 09:03:09;;;;;;;16.83;2.95;;;;;;;;;;5021757;28;20509;-43
2023/01/07 09:05:36;;;;;;;18.77;3.10;;;;;;;;;;5004057;28;20171;-40
2023/01/07 09:08:03;;;;;;;21.98;3.17;;;;;;;;;;5020238;28;20034;-44
2023/01/07 09:10:30;;;;;;;21.40;2.67;;;;;;;;;;5021786;28;20017;-41
2023/01/07 09:12:57;;;;;;;13.98;2.33;;;;;;;;;;5021721;28;20476;-44
2023/01/07 09:15:24;;;;;;;14.32;2.88;;;;;;;;;;5034667;22;20500;-36
2023/01/07 09:17:51;;;;;;;22.65;3.17;;;;;;;;;;5025335;28;20105;-36
2023/01/07 09:20:18;;;;;;;30.10;3.08;;;;;;;;;;5020907;28;20124;-36
2023/01/07 09:22:46;;;;;;;18.30;3.08;;;;;;;;;;5022002;28;20387;-38
2023/01/07 09:25:12;;;;;;;15.68;3.05;;;;;;;;;;5020700;28;20044;-36
2023/01/07 09:27:41;;;;;;;21.30;2.78;;;;;;;;;;5020338;28;20175;-36
2023/01/07 09:30:08;;;;;;;20.63;3.40;;;;;;;;;;5020065;28;20029;-38
2023/01/07 09:32:35;;;;;;;18.02;3.10;;;;;;;;;;5020996;28;20029;-38
2023/01/07 09:35:02;;;;;;;21.58;3.13;;;;;;;;;;5021530;28;20082;-36
2023/01/07 09:37:29;;;;;;;10.75;2.83;;;;;;;;;;5020955;28;20042;-37
2023/01/07 09:39:56;;;;;;;17.77;3.50;;;;;;;;;;5021128;28;20029;-38
2023/01/07 09:42:32;;;;;;;17.52;2.75;;;;;;;;;;5019918;28;20488;-38
2023/01/07 09:44:59;;;;;;;16.35;3.83;;;;;;;;;;5020321;28;20553;-38
2023/01/07 09:47:28;;;;;;;28.17;3.63;;;;;;;;;;5021871;28;20045;-39
2023/01/07 09:50:01;;;;;;;32.22;3.85;;;;;;;;;;5020769;28;20030;-37
2023/01/07 09:52:36;;;;;;;22.73;3.40;;;;;;;;;;5021613;28;20025;-38
2023/01/07 09:55:24;;;;;;;29.60;3.42;;;;;;;;;;5021633;28;20029;-37
2023/01/07 09:57:51;;;;;;;23.98;3.50;;;;;;;;;;5019970;28;20161;-37
2023/01/07 10:00:20;;;;;;;26.27;3.92;;;;;;;;;;5020303;28;20033;-38
2023/01/07 10:02:54;;;;;;;41.35;4.25;;;;;;;;;;5021492;28;20112;-39
2023/01/07 10:05:39;;;;;;;32.13;3.83;;;;;;;;;;5021379;28;20485;-38
2023/01/07 10:08:08;;;;;;;26.17;3.75;;;;;;;;;;5021517;28;20049;-38
2023/01/07 10:10:44;;;;;;;22.20;2.97;;;;;;;;;;5020454;28;20030;-38
2023/01/07 10:13:24;;;;;;;16.83;2.80;;;;;;;;;;5019942;28;20101;-37
2023/01/07 10:16:09;;;;;;;20.60;2.95;;;;;;;;;;5019582;28;20404;-37
2023/01/07 10:18:39;;;;;;;14.73;2.33;;;;;;;;;;5020450;28;20030;-38
2023/01/07 10:21:12;;;;;;;13.57;3.15;;;;;;;;;;5019424;28;20092;-38
2023/01/07 10:23:41;;;;;;;23.48;2.92;;;;;;;;;;5020171;28;20472;-38
2023/01/07 10:26:16;;;;;;;21.02;2.60;;;;;;;;;;5021427;28;20025;-39
2023/01/07 10:28:48;;;;;;;37.00;4.22;;;;;;;;;;5021734;28;20450;-36
2023/01/07 10:31:20;;;;;;;43.40;4.63;;;;;;;;;;5020417;28;20464;-38
2023/01/07 10:33:48;;;;;;;45.20;4.78;;;;;;;;;;5021286;28;20061;-38
2023/01/07 10:36:18;;;;;;;22.42;3.42;;;;;;;;;;5020074;28;20088;-37
2023/01/07 10:38:49;;;;;;;24.80;3.78;;;;;;;;;;5019219;28;20061;-37
2023/01/07 10:41:22;;;;;;;36.15;4.63;;;;;;;;;;5020206;28;20065;-36
2023/01/07 10:43:49;;;;;;;17.95;3.10;;;;;;;;;;5019304;28;20104;-40
2023/01/07 10:46:22;;;;;;;23.73;3.03;;;;;;;;;;5020169;28;20390;-38
2023/01/07 10:48:55;;;;;;;16.80;2.70;;;;;;;;;;5020996;28;20492;-35
2023/01/07 10:51:33;;;;;;;9.25;2.35;;;;;;;;;;5023353;28;20069;-37
2023/01/07 10:54:20;;;;;;;24.10;3.03;;;;;;;;;;5024558;28;20547;-37
2023/01/07 10:56:51;;;;;;;13.13;3.03;;;;;;;;;;4994351;28;20045;-39
2023/01/07 10:59:20;;;;;;;23.73;2.85;;;;;;;;;;5024117;28;20484;-37
2023/01/07 11:01:54;;;;;;;21.80;2.95;;;;;;;;;;5022724;28;20034;-37
2023/01/07 11:04:21;;;;;;;21.58;3.15;;;;;;;;;;5023161;28;20480;-38
2023/01/07 11:07:08;;;;;;;19.77;2.95;;;;;;;;;;5024527;28;20482;-38
2023/01/07 11:09:40;;;;;;;17.27;3.22;;;;;;;;;;5023567;28;20033;-37
2023/01/07 11:12:25;;;;;;;28.17;3.72;;;;;;;;;;5022673;28;20026;-38
2023/01/07 11:14:53;;;;;;;22.70;3.60;;;;;;;;;;5022780;28;20061;-38
2023/01/07 11:17:26;;;;;;;24.35;3.03;;;;;;;;;;5005153;28;20391;-39
2023/01/07 11:19:53;;;;;;;28.05;3.45;;;;;;;;;;5023198;28;20030;-39
2023/01/07 11:22:26;;;;;;;39.15;4.30;;;;;;;;;;5022878;28;20064;-37
2023/01/07 11:24:53;;;;;;;26.92;4.45;;;;;;;;;;5022997;28;20025;-38
2023/01/07 11:27:21;;;;;;;37.72;4.32;;;;;;;;;;5022736;28;20042;-39
2023/01/07 11:30:02;;;;;;;30.38;3.97;;;;;;;;;;5024293;28;20521;-37
2023/01/07 11:32:39;;;;;;;36.17;4.68;;;;;;;;;;5022440;28;20030;-36
2023/01/07 11:35:06;;;;;;;32.60;3.88;;;;;;;;;;5022040;28;20523;-38
2023/01/07 11:37:40;;;;;;;30.92;4.03;;;;;;;;;;5023520;28;20037;-39
2023/01/07 11:40:16;;;;;;;21.02;3.60;;;;;;;;;;5024062;28;20033;-37
2023/01/07 11:43:00;;;;;;;30.90;3.83;;;;;;;;;;5023961;28;20033;-38
2023/01/07 11:45:28;;;;;;;31.13;4.40;;;;;;;;;;5023901;28;20156;-38
2023/01/07 11:48:18;;;;;;;38.95;4.10;;;;;;;;;;5022647;28;20034;-38
2023/01/07 11:50:54;;;;;;;37.50;4.20;;;;;;;;;;5023934;28;20033;-38
2023/01/07 11:53:39;;;;;;;36.67;4.38;;;;;;;;;;5023513;28;20037;-37
2023/01/07 11:56:08;;;;;;;43.13;4.03;;;;;;;;;;5023760;28;20036;-37
2023/01/07 11:58:42;;;;;;;42.63;5.03;;;;;;;;;;5023420;28;20364;-38
2023/01/07 12:01:09;;;;;;;39.92;4.18;;;;;;;;;;5021211;28;20037;-38
2023/01/07 12:04:02;;;;;;;25.20;3.72;;;;;;;;;;5022797;28;20108;-37
2023/01/07 12:06:28;;;;;;;;;;;;;;;;;;5023769;28;20033;-38
2023/01/07 12:08:59;;;;;;;51.10;5.43;;;;;;;;;;5022583;28;19913;-37
2023/01/07 12:11:30;;;;;;;37.63;4.57;;;;;;;;;;5021486;28;20053;-39
2023/01/07 12:14:00;;;;;;;44.15;5.82;;;;;;;;;;5022353;28;20024;-38
2023/01/07 12:16:27;;;;;;;38.70;5.47;;;;;;;;;;5023099;28;20052;-37
2023/01/07 12:19:04;;;;;;;37.38;4.90;;;;;;;;;;5022022;28;20455;-37
2023/01/07 12:21:35;;;;;;;42.22;4.78;;;;;;;;;;5021643;28;20065;-38
2023/01/07 12:24:21;;;;;;;44.85;4.35;;;;;;;;;;5003868;28;20487;-37
2023/01/07 12:27:20;;;;;;;37.15;4.82;;;;;;;;;;5024706;28;20068;-37
2023/01/07 12:30:05;;;;;;;55.83;6.57;;;;;;;;;;4999456;28;20057;-39
2023/01/07 12:32:44;;;;;;;36.97;6.10;;;;;;;;;;5014630;28;20511;-37
2023/01/07 12:35:21;;;;;;;41.92;5.30;;;;;;;;;;5021451;28;20048;-38
2023/01/07 12:37:58;;;;;;;43.97;5.95;;;;;;;;;;5028791;28;20033;-38
2023/01/07 12:40:25;;;;;;;32.45;5.22;;;;;;;;;;5021888;28;20041;-37
2023/01/07 12:43:18;;;;;;;43.05;5.88;;;;;;;;;;5011862;28;20512;-37
2023/01/07 12:45:51;;;;;;;45.22;5.47;;;;;;;;;;5027482;28;20045;-38
2023/01/07 12:48:28;;;;;;;30.98;5.50;;;;;;;;;;5032718;28;20124;-37
2023/01/07 12:50:57;;;;;;;47.65;5.68;;;;;;;;;;5015124;28;20029;-37
2023/01/07 12:53:34;;;;;;;49.33;6.30;;;;;;;;;;5012609;28;20116;-37
2023/01/07 12:56:04;;;;;;;42.75;5.43;;;;;;;;;;5012025;28;20083;-37
2023/01/07 12:58:43;;;;;;;40.35;5.97;;;;;;;;;;5015431;28;20028;-37
2023/01/07 13:01:14;;;;;;;30.92;5.65;;;;;;;;;;5017735;28;20037;-37
2023/01/07 13:03:46;;;;;;;31.65;5.75;;;;;;;;;;5028810;28;20041;-36
2023/01/07 13:06:32;;;;;;;33.08;5.45;;;;;;;;;;5032429;28;20026;-37
2023/01/07 13:09:03;;;;;;;33.78;5.53;;;;;;;;;;5032359;28;20116;-37
2023/01/07 13:14:27;;;;;;;24.65;5.05;;;;;;;;;;5019023;28;20059;-36
2023/01/07 13:16:59;;;;;;;22.48;5.03;;;;;;;;;;5018892;28;20480;-37
2023/01/07 13:19:26;;;;;;;24.63;4.97;;;;;;;;;;5008247;28;20026;-37
2023/01/07 13:21:54;;;;;;;25.52;4.70;;;;;;;;;;5012160;28;20044;-37
2023/01/07 13:24:29;;;;;;;25.77;5.28;;;;;;;;;;5017659;28;20042;-36
2023/01/07 13:27:19;;;;;;;24.60;5.30;;;;;;;;;;5010344;28;20041;-37
2023/01/07 13:29:52;;;;;;;27.27;4.93;;;;;;;;;;4997965;28;20422;-37
2023/01/07 13:32:37;;;;;;;25.35;5.85;;;;;;;;;;5024273;28;20426;-35
2023/01/07 13:35:20;;;;;;;23.58;5.38;;;;;;;;;;5029787;28;20112;-37
2023/01/07 13:37:54;;;;;;;28.95;5.47;;;;;;;;;;5015485;28;20443;-36
2023/01/07 13:40:43;;;;;;;32.25;5.85;;;;;;;;;;5018331;28;20033;-37
2023/01/07 13:43:23;;;;;;;23.70;5.40;;;;;;;;;;5025577;28;20034;-38
2023/01/07 13:45:55;;;;;;;29.70;5.80;;;;;;;;;;5011569;28;20440;-39
2023/01/07 13:48:21;;;;;;;;;;;;;;;;;;5011724;28;20030;-37
2023/01/07 13:51:01;;;;;;;19.63;4.88;;;;;;;;;;5010585;28;19913;-38
2023/01/07 13:53:33;;;;;;;26.80;5.68;;;;;;;;;;5010897;28;20030;-36
2023/01/07 13:56:18;;;;;;;32.65;5.63;;;;;;;;;;5010504;28;20056;-37
2023/01/07 13:58:54;;;;;;;32.85;4.95;;;;;;;;;;5011249;28;20108;-40
2023/01/07 14:01:25;;;;;;;99.53;51.15;;;;;;;;;;5012347;28;20091;-36
2023/01/07 14:04:01;;;;;;;181.02;103.35;;;;;;;;;;5029468;28;20030;-36
2023/01/07 14:06:32;;;;;;;156.30;86.93;;;;;;;;;;5030519;28;20035;-37
2023/01/07 14:09:05;;;;;;;142.50;79.40;;;;;;;;;;5019057;28;20096;-37
2023/01/07 14:11:32;;;;;;;126.22;70.22;;;;;;;;;;5010219;28;20276;-38
2023/01/07 14:13:59;;;;;;;110.10;63.78;;;;;;;;;;5011146;28;20084;-35
2023/01/07 14:16:41;;;;;;;116.22;60.03;;;;;;;;;;5009730;28;20493;-39
2023/01/07 14:19:11;;;;;;;106.50;55.75;;;;;;;;;;5010694;28;20030;-38
2023/01/07 14:21:42;;;;;;;92.43;51.83;;;;;;;;;;5010146;28;20460;-35
2023/01/07 14:24:25;;;;;;;99.82;50.75;;;;;;;;;;5018951;28;20029;-38
2023/01/07 14:27:18;;;;;;;84.78;46.95;;;;;;;;;;5016777;28;20026;-38
2023/01/07 14:29:48;;;;;;;77.72;43.60;;;;;;;;;;5010945;28;20045;-38
2023/01/07 14:32:34;;;;;;;79.57;42.53;;;;;;;;;;5034553;28;20029;-38
2023/01/07 14:35:04;;;;;;;75.10;39.20;;;;;;;;;;5029533;28;20034;-38
2023/01/07 14:37:31;;;;;;;76.38;40.38;;;;;;;;;;5027335;28;20022;-35
2023/01/07 14:39:58;;;;;;;76.18;37.90;;;;;;;;;;5024657;28;20499;-35
2023/01/07 14:42:27;;;;;;;64.93;35.95;;;;;;;;;;5022294;28;20026;-36
2023/01/07 14:44:54;;;;;;;61.15;34.30;;;;;;;;;;5014652;28;20026;-38
2023/01/07 14:47:39;;;;;;;60.58;31.65;;;;;;;;;;5015630;28;20408;-36
2023/01/07 14:50:32;;;;;;;55.75;31.13;;;;;;;;;;5014338;28;20022;-37
2023/01/07 14:53:39;;;;;;;54.53;28.52;;;;;;;;;;5011941;28;20388;-37
2023/01/07 14:56:16;;;;;;;53.65;28.02;;;;;;;;;;4973095;28;20043;-37